Time;durP1;ratioP1;P1;durP2;ratioP2;P2;SDS_P1;SDS_P2;PMS_P1;PMS_P2;Temp;Humidity;BMP_temperature;BMP_pressure;BME280_temperature;BME280_humidity;BME280_pressure;Samples;Min_cycle;Max_cycle;Signal;HPM_P1;HPM_P2
2022/01/06 00:01:16;;;;;;;13.73;11.55;;;;;;;10.76;70.73;99933.66;4938637;28;102382;-48
2022/01/06 00:03:43;;;;;;;16.92;12.07;;;;;;;10.75;70.40;99930.13;4934865;28;102308;-49
2022/01/06 00:06:10;;;;;;;15.25;11.63;;;;;;;10.76;70.55;99939.09;4942026;28;102147;-47
2022/01/06 00:08:39;;;;;;;14.00;10.63;;;;;;;10.75;70.42;99935.56;4937288;28;103874;-49
2022/01/06 00:11:10;;;;;;;13.48;10.35;;;;;;;10.76;70.94;99931.75;4932667;28;102190;-50
2022/01/06 00:13:56;;;;;;;14.23;10.90;;;;;;;10.76;70.78;99929.03;4954675;28;102058;-49
2022/01/06 00:24:15;;;;;;;14.45;10.40;;;;;;;10.76;70.56;99934.47;4944883;28;102090;-49
2022/01/06 00:26:42;;;;;;;13.88;10.73;;;;;;;10.76;70.54;99942.63;4952154;28;102167;-49
2022/01/06 00:29:08;;;;;;;12.13;10.25;;;;;;;10.76;70.78;99942.63;4936819;28;104048;-49
2022/01/06 00:31:36;;;;;;;14.88;10.55;;;;;;;10.77;71.05;99935.28;4943634;28;102275;-49
2022/01/06 00:34:02;;;;;;;13.07;10.32;;;;;;;10.76;70.52;99939.91;4936369;28;102274;-48
2022/01/06 00:36:30;;;;;;;15.35;10.95;;;;;;;10.77;70.51;99940.72;4925978;28;102307;-49
2022/01/06 00:38:56;;;;;;;14.07;10.40;;;;;;;10.76;70.53;99942.63;4942187;28;103870;-49
2022/01/06 00:41:24;;;;;;;13.50;10.70;;;;;;;10.76;70.48;99934.47;4944706;28;102159;-47
2022/01/06 00:43:51;;;;;;;12.18;10.00;;;;;;;10.75;70.85;99938.28;4956508;28;102338;-49
2022/01/06 00:46:17;;;;;;;12.98;10.27;;;;;;;10.76;70.57;99934.47;4955283;28;102218;-49
2022/01/06 00:48:43;;;;;;;13.88;10.50;;;;;;;10.76;70.57;99934.47;4945934;28;104071;-51
2022/01/06 00:51:10;;;;;;;14.82;10.35;;;;;;;10.77;71.05;99936.06;4936009;28;102237;-49
2022/01/06 00:53:36;;;;;;;12.95;9.60;;;;;;;10.77;71.15;99940.72;4946639;28;102078;-47
2022/01/06 00:56:03;;;;;;;13.63;10.13;;;;;;;10.77;70.57;99946.97;4952352;28;102381;-47
2022/01/06 00:58:31;;;;;;;14.57;10.35;;;;;;;10.77;70.96;99936.06;4952476;28;104278;-49
2022/01/06 01:00:57;;;;;;;14.75;9.35;;;;;;;10.76;70.66;99937.19;4955524;28;102401;-47
2022/01/06 01:03:24;;;;;;;12.77;9.20;;;;;;;10.76;70.72;99931.75;4957632;28;102601;-49
2022/01/06 01:05:53;;;;;;;12.73;9.50;;;;;;;10.76;71.13;99929.03;4958081;28;102154;-46
2022/01/06 01:08:20;;;;;;;13.27;9.93;;;;;;;10.77;70.67;99930.63;4955473;28;103659;-47
2022/01/06 01:10:48;;;;;;;12.77;9.32;;;;;;;10.76;70.56;99934.47;4955934;28;103013;-49
2022/01/06 01:13:15;;;;;;;13.10;10.43;;;;;;;10.77;71.03;99938.78;4945615;28;101944;-49
2022/01/06 01:15:54;;;;;;;13.37;10.10;;;;;;;10.77;70.69;99938.78;4941178;28;102483;-51
2022/01/06 01:18:21;;;;;;;12.18;9.52;;;;;;;10.77;70.69;99929.81;4945469;28;103965;-46
2022/01/06 01:20:49;;;;;;;12.15;9.55;;;;;;;10.77;70.48;99929.81;4945162;28;102155;-49
2022/01/06 01:23:16;;;;;;;11.20;9.10;;;;;;;10.77;70.46;99918.94;4937308;28;102170;-46
2022/01/06 01:25:44;;;;;;;11.93;9.25;;;;;;;10.77;70.70;99918.94;4950953;28;102387;-47
2022/01/06 01:28:11;;;;;;;12.82;9.13;;;;;;;10.76;70.75;99923.56;4937180;28;103681;-49
2022/01/06 01:31:01;;;;;;;12.37;9.63;;;;;;;10.76;71.22;99923.56;4951790;28;102324;-49
2022/01/06 01:33:30;;;;;;;11.65;9.23;;;;;;;10.76;70.70;99918.13;4944386;28;102709;-48
2022/01/06 01:35:57;;;;;;;11.82;9.55;;;;;;;10.76;70.51;99915.41;4948166;28;102558;-50
2022/01/06 01:38:23;;;;;;;12.00;9.35;;;;;;;10.76;70.67;99909.97;4936054;28;103927;-49
2022/01/06 01:40:50;;;;;;;11.88;8.80;;;;;;;10.76;70.78;99901.81;4935858;28;102576;-49
2022/01/06 01:43:16;;;;;;;14.02;10.07;;;;;;;10.77;70.83;99900.69;4935685;28;102153;-49
2022/01/06 01:45:46;;;;;;;12.60;9.05;;;;;;;10.77;70.65;99892.53;4956887;28;102232;-50
2022/01/06 01:48:20;;;;;;;11.82;9.10;;;;;;;10.77;70.45;99891.72;4948805;28;103983;-46
2022/01/06 01:50:48;;;;;;;12.65;9.23;;;;;;;10.77;70.51;99889.81;4955550;28;102554;-49
2022/01/06 01:53:14;;;;;;;11.88;8.70;;;;;;;10.77;70.71;99887.09;4947135;28;103446;-47
2022/01/06 01:55:41;;;;;;;10.95;8.93;;;;;;;10.77;70.65;99892.53;4955917;28;102512;-49
2022/01/06 01:58:08;;;;;;;12.93;9.02;;;;;;;10.77;70.84;99891.72;4955780;28;102832;-49
2022/01/06 02:00:35;;;;;;;10.95;9.05;;;;;;;10.77;70.71;99892.53;4954907;28;102645;-47
2022/01/06 02:03:02;;;;;;;10.48;8.50;;;;;;;10.77;70.77;99892.53;4952905;28;102321;-49
2022/01/06 02:05:29;;;;;;;10.57;8.52;;;;;;;10.77;70.63;99895.25;4956593;28;102189;-49
2022/01/06 02:07:58;;;;;;;11.43;9.52;;;;;;;10.77;70.89;99891.72;4954880;28;103945;-49
2022/01/06 02:10:26;;;;;;;11.88;9.23;;;;;;;10.78;70.88;99899.63;4950957;28;102398;-49
2022/01/06 02:12:54;;;;;;;11.02;8.57;;;;;;;10.78;70.60;99906.94;4940764;28;102636;-47
2022/01/06 02:15:21;;;;;;;11.70;9.38;;;;;;;10.77;70.65;99908.84;4937299;28;102170;-48
2022/01/06 02:17:48;;;;;;;11.48;9.10;;;;;;;10.77;70.98;99906.13;4940775;28;104129;-49
2022/01/06 02:20:18;;;;;;;11.63;9.13;;;;;;;10.78;70.64;99913.22;4936015;28;102570;-48
2022/01/06 02:22:45;;;;;;;12.85;9.90;;;;;;;10.77;70.78;99900.69;4937463;28;102268;-47
2022/01/06 02:25:14;;;;;;;10.00;8.18;;;;;;;10.77;70.56;99900.69;4941699;28;102101;-49
2022/01/06 02:27:41;;;;;;;11.68;8.32;;;;;;;10.78;70.65;99894.16;4943745;28;103920;-50
2022/01/06 02:30:09;;;;;;;10.90;9.05;;;;;;;10.77;70.94;99892.53;4956275;28;102040;-49
2022/01/06 02:32:35;;;;;;;9.93;8.82;;;;;;;10.77;71.09;99886.28;4944970;28;102312;-48
2022/01/06 02:35:05;;;;;;;11.10;8.45;;;;;;;10.77;70.29;99897.97;4933423;28;102395;-50
2022/01/06 02:37:33;;;;;;;11.47;8.40;;;;;;;10.79;70.84;99901.22;4941367;28;104145;-49
2022/01/06 02:39:59;;;;;;;10.93;8.03;;;;;;;10.77;70.77;99897.97;4946114;28;102315;-49
2022/01/06 02:42:27;;;;;;;11.45;8.52;;;;;;;10.79;70.97;99900.41;4953858;28;101989;-47
2022/01/06 02:44:54;;;;;;;11.23;8.90;;;;;;;10.77;70.97;99886.28;4918681;28;102522;-48
2022/01/06 02:47:20;;;;;;;10.70;8.73;;;;;;;10.76;70.85;99888.19;4935074;28;104532;-50
2022/01/06 02:49:47;;;;;;;11.43;8.82;;;;;;;10.77;71.26;99892.53;4943680;28;102366;-47
2022/01/06 02:52:13;;;;;;;10.32;8.63;;;;;;;10.78;70.30;99891.44;4954885;28;102104;-49
2022/01/06 02:54:42;;;;;;;9.73;8.20;;;;;;;10.77;71.01;99875.41;4956666;28;102388;-49
2022/01/06 02:57:09;;;;;;;10.23;8.68;;;;;;;10.78;70.86;99877.84;4952640;28;104013;-47
2022/01/06 02:59:36;;;;;;;10.15;8.30;;;;;;;10.77;70.73;99873.47;4943255;28;102025;-47
2022/01/06 03:02:03;;;;;;;11.93;9.23;;;;;;;10.77;70.57;99876.19;4944330;28;102236;-47
2022/01/06 03:04:29;;;;;;;10.65;8.13;;;;;;;10.78;70.36;99877.00;4954331;28;102104;-49
2022/01/06 03:06:56;;;;;;;9.98;8.02;;;;;;;10.78;70.99;99886.00;4941447;28;103834;-47
2022/01/06 03:09:35;;;;;;;9.27;8.27;;;;;;;10.77;70.95;99884.38;4931361;28;102618;-49
2022/01/06 03:12:05;;;;;;;10.30;8.75;;;;;;;10.78;70.85;99883.28;4943042;28;102144;-48
2022/01/06 03:14:32;;;;;;;11.50;8.93;;;;;;;10.77;70.39;99887.09;4935418;28;102170;-49
2022/01/06 03:16:58;;;;;;;9.27;7.63;;;;;;;10.77;70.99;99892.53;4933893;28;104085;-49
2022/01/06 03:19:25;;;;;;;8.82;7.65;;;;;;;10.78;70.94;99894.16;4945552;28;102552;-49
2022/01/06 03:21:51;;;;;;;10.85;8.55;;;;;;;10.77;70.52;99908.84;4927933;28;102554;-48
2022/01/06 03:24:17;;;;;;;10.82;8.80;;;;;;;10.77;70.38;99891.72;4940148;28;102638;-50
2022/01/06 03:26:44;;;;;;;10.27;8.30;;;;;;;10.77;70.70;99897.97;4945318;28;103938;-50
2022/01/06 03:29:12;;;;;;;9.77;8.30;;;;;;;10.78;71.03;99899.63;4943951;28;102212;-49
2022/01/06 03:31:38;;;;;;;10.27;7.60;;;;;;;10.79;70.46;99905.88;4951484;28;102133;-49
2022/01/06 03:34:04;;;;;;;11.20;8.73;;;;;;;10.78;70.36;99899.63;4947365;28;102281;-50
2022/01/06 03:36:32;;;;;;;11.55;8.73;;;;;;;10.77;71.02;99887.09;4961324;28;104110;-51
2022/01/06 03:38:59;;;;;;;10.77;7.82;;;;;;;10.78;70.85;99883.28;4959922;28;102255;-50
2022/01/06 03:41:25;;;;;;;9.95;8.13;;;;;;;10.77;70.52;99887.09;4940115;28;103117;-50
2022/01/06 03:43:52;;;;;;;9.00;7.22;;;;;;;10.77;70.58;99897.97;4937595;28;102194;-50
2022/01/06 03:46:19;;;;;;;10.35;8.35;;;;;;;10.78;71.18;99894.16;4923427;28;103798;-50
2022/01/06 03:48:46;;;;;;;9.35;7.80;;;;;;;10.77;71.00;99906.13;4938639;28;102063;-52
2022/01/06 03:51:13;;;;;;;9.25;7.97;;;;;;;10.79;70.62;99900.41;4940083;28;102411;-50
2022/01/06 03:53:39;;;;;;;9.48;8.07;;;;;;;10.78;70.62;99910.50;4946236;28;102480;-50
2022/01/06 03:56:06;;;;;;;10.20;7.60;;;;;;;10.78;70.50;99915.94;4944190;28;103848;-49
2022/01/06 03:58:32;;;;;;;9.57;7.90;;;;;;;10.78;70.98;99902.34;4942620;28;101999;-50
2022/01/06 04:00:58;;;;;;;9.73;8.13;;;;;;;10.78;70.58;99910.50;4960862;28;102316;-48
2022/01/06 04:03:26;;;;;;;9.48;7.63;;;;;;;10.79;70.34;99898.50;4960984;28;102521;-49
2022/01/06 04:05:53;;;;;;;9.75;7.93;;;;;;;10.77;71.01;99897.97;4954589;28;104090;-48
2022/01/06 04:08:19;;;;;;;10.63;8.02;;;;;;;10.77;70.88;99908.84;4938357;28;102028;-49
2022/01/06 04:10:45;;;;;;;9.05;7.70;;;;;;;10.79;70.43;99917.56;4938596;28;102109;-48
2022/01/06 04:13:12;;;;;;;10.20;8.13;;;;;;;10.79;70.71;99911.31;4957534;28;102278;-49
2022/01/06 04:15:39;;;;;;;9.50;7.65;;;;;;;10.79;71.13;99911.31;4957691;28;103671;-47
2022/01/06 04:18:08;;;;;;;10.10;7.63;;;;;;;10.79;70.35;99916.75;4938715;28;103099;-49
2022/01/06 04:20:36;;;;;;;9.73;7.57;;;;;;;10.79;70.50;99914.84;4936620;28;102535;-51
2022/01/06 04:23:02;;;;;;;9.00;7.70;;;;;;;10.79;70.97;99903.94;4934688;28;102427;-50
2022/01/06 04:25:29;;;;;;;10.32;7.75;;;;;;;10.78;70.63;99915.94;4938134;28;104005;-47
2022/01/06 04:27:55;;;;;;;9.85;7.60;;;;;;;10.79;70.73;99912.13;4931401;28;102362;-49
2022/01/06 04:30:22;;;;;;;8.82;7.90;;;;;;;10.78;71.06;99918.66;4934172;28;102414;-49
2022/01/06 04:32:48;;;;;;;10.45;7.97;;;;;;;10.79;70.87;99927.63;4947773;28;102410;-49
2022/01/06 04:35:14;;;;;;;8.98;7.50;;;;;;;10.79;71.00;99933.88;4938970;28;104270;-51
2022/01/06 04:37:42;;;;;;;9.10;7.80;;;;;;;10.78;70.53;99943.16;4958591;28;102422;-47
2022/01/06 04:40:10;;;;;;;9.48;7.63;;;;;;;10.78;70.54;99943.16;4970542;28;102363;-48
2022/01/06 04:42:37;;;;;;;9.75;7.88;;;;;;;10.80;70.75;99951.03;4954922;28;102506;-48
2022/01/06 04:45:05;;;;;;;8.73;7.75;;;;;;;10.79;70.59;99950.22;4954797;28;103889;-49
2022/01/06 04:47:32;;;;;;;8.27;7.40;;;;;;;10.79;70.35;99950.22;4955987;28;102165;-49
2022/01/06 04:49:59;;;;;;;9.68;7.53;;;;;;;10.77;70.87;99946.97;4950518;28;102232;-49
2022/01/06 04:52:25;;;;;;;10.43;8.13;;;;;;;10.79;70.61;99949.41;4949261;28;102397;-49
2022/01/06 04:54:53;;;;;;;11.07;8.18;;;;;;;10.79;71.00;99944.78;4936726;28;103970;-48
2022/01/06 04:57:19;;;;;;;7.93;7.10;;;;;;;10.79;70.64;99949.41;4955482;28;102253;-47
2022/01/06 04:59:46;;;;;;;8.63;7.28;;;;;;;10.78;70.51;99951.31;4936602;28;102455;-49
2022/01/06 05:02:12;;;;;;;8.50;7.60;;;;;;;10.79;70.90;99950.22;4928102;28;102321;-47
2022/01/06 05:04:38;;;;;;;8.30;7.22;;;;;;;10.77;71.05;99955.13;4952256;28;103911;-47
2022/01/06 05:07:05;;;;;;;8.88;7.68;;;;;;;10.78;70.37;99951.31;4943934;28;102415;-48
2022/01/06 05:09:32;;;;;;;8.90;7.30;;;;;;;10.77;70.58;99957.84;4977206;28;103280;-49
2022/01/06 05:12:00;;;;;;;8.90;7.45;;;;;;;10.79;70.59;99972.00;4952358;28;102192;-49
2022/01/06 05:14:26;;;;;;;8.95;7.35;;;;;;;10.78;70.55;99970.38;4934665;28;103950;-48
2022/01/06 05:16:55;;;;;;;8.93;7.05;;;;;;;10.79;70.67;99984.78;4937571;28;102708;-48
2022/01/06 05:19:22;;;;;;;;;;;;;;;10.78;70.77;99981.25;4951567;28;102265;-50
2022/01/06 05:21:48;;;;;;;9.52;7.10;;;;;;;10.79;70.60;99982.06;4937636;28;102639;-47
2022/01/06 05:24:16;;;;;;;9.68;7.55;;;;;;;10.79;71.00;99985.59;4936152;28;104073;-50
2022/01/06 05:26:43;;;;;;;9.20;7.13;;;;;;;10.80;70.35;99983.69;4948834;28;104455;-48
2022/01/06 05:29:13;;;;;;;9.10;7.43;;;;;;;10.78;70.86;99983.97;4954857;28;102216;-49
2022/01/06 05:31:40;;;;;;;9.70;7.30;;;;;;;10.78;70.68;99986.72;4933120;28;102278;-49
2022/01/06 05:34:07;;;;;;;10.15;7.80;;;;;;;10.79;71.07;99985.59;4936577;28;104139;-47
2022/01/06 05:36:34;;;;;;;12.15;7.47;;;;;;;10.77;70.81;99990.50;4936344;28;102168;-47
2022/01/06 05:39:00;;;;;;;9.93;7.57;;;;;;;10.77;70.66;99995.94;4936163;28;102644;-49
2022/01/06 05:41:27;;;;;;;10.10;7.88;;;;;;;10.79;70.50;99993.75;4934773;28;102242;-48
2022/01/06 05:43:53;;;;;;;9.90;8.18;;;;;;;10.78;70.99;99996.75;4934523;28;103819;-49
2022/01/06 05:46:21;;;;;;;9.45;7.70;;;;;;;10.77;70.66;99995.94;4936664;28;102131;-48
2022/01/06 05:48:48;;;;;;;11.57;7.93;;;;;;;10.79;70.68;100001.13;4934755;28;102100;-48
2022/01/06 05:51:15;;;;;;;9.82;8.13;;;;;;;10.79;70.99;99990.22;4938982;28;102166;-49
2022/01/06 05:53:41;;;;;;;9.70;7.68;;;;;;;10.79;70.44;99988.31;4934326;28;103932;-48
2022/01/06 05:56:07;;;;;;;10.80;7.78;;;;;;;10.78;70.99;99981.25;4936501;28;102261;-48
2022/01/06 05:58:35;;;;;;;9.73;7.82;;;;;;;10.77;70.63;99995.94;4932568;28;102556;-48
2022/01/06 06:01:01;;;;;;;10.07;7.95;;;;;;;10.78;70.75;99997.59;4945557;28;102327;-49
2022/01/06 06:03:29;;;;;;;10.95;8.32;;;;;;;10.78;70.98;100000.31;4954417;28;104157;-47
2022/01/06 06:05:56;;;;;;;12.02;8.18;;;;;;;10.78;70.97;100005.75;4937906;28;102303;-50
2022/01/06 06:08:22;;;;;;;9.68;7.68;;;;;;;10.79;70.64;100010.09;4937394;28;102525;-50
2022/01/06 06:10:49;;;;;;;11.57;8.38;;;;;;;10.79;70.85;100009.28;4948835;28;102135;-50
2022/01/06 06:13:15;;;;;;;14.18;8.93;;;;;;;10.79;70.49;100010.09;4948220;28;103883;-49
2022/01/06 06:15:43;;;;;;;10.17;8.17;;;;;;;10.79;71.00;100001.94;4947984;28;102225;-49
2022/01/06 06:18:11;;;;;;;11.98;8.85;;;;;;;10.80;70.91;100021.78;4941592;28;102262;-49
2022/01/06 06:20:40;;;;;;;9.93;8.27;;;;;;;10.78;70.53;100019.38;4940290;28;102430;-48
2022/01/06 06:23:07;;;;;;;11.48;8.90;;;;;;;10.79;70.85;100017.44;4932731;28;103809;-48
2022/01/06 06:25:34;;;;;;;10.90;8.50;;;;;;;10.79;70.61;100020.97;4934396;28;102202;-49
2022/01/06 06:28:01;;;;;;;11.55;8.98;;;;;;;10.78;71.04;100013.94;4932642;28;102236;-51
2022/01/06 06:30:28;;;;;;;11.15;8.90;;;;;;;10.79;70.75;100031.88;4937433;28;102178;-50
2022/01/06 06:32:54;;;;;;;11.88;9.43;;;;;;;10.80;70.53;100024.50;4926493;28;103872;-48
2022/01/06 06:35:20;;;;;;;11.45;9.15;;;;;;;10.79;70.75;100018.25;4937341;28;102279;-48
2022/01/06 06:37:48;;;;;;;11.93;9.45;;;;;;;10.80;71.00;100016.34;4934815;28;102388;-50
2022/01/06 06:40:14;;;;;;;12.70;9.93;;;;;;;10.79;70.63;100023.69;4938595;28;102496;-49
2022/01/06 06:42:41;;;;;;;12.52;9.65;;;;;;;10.80;70.90;100025.31;4932869;28;103911;-48
2022/01/06 06:45:09;;;;;;;14.05;9.35;;;;;;;10.80;71.03;100010.91;4935503;28;103465;-49
2022/01/06 06:47:36;;;;;;;11.77;8.88;;;;;;;10.81;70.81;100012.50;4933559;28;102450;-50
2022/01/06 06:50:03;;;;;;;12.05;9.60;;;;;;;10.81;71.07;100007.88;4936615;28;105336;-50
2022/01/06 06:52:30;;;;;;;12.13;9.35;;;;;;;10.81;70.74;100023.41;4950023;28;103931;-49
2022/01/06 06:54:58;;;;;;;11.05;9.18;;;;;;;10.80;70.97;100019.88;4947523;28;102038;-49
2022/01/06 06:57:24;;;;;;;11.98;9.20;;;;;;;10.81;70.47;100024.22;4931507;28;102190;-48
2022/01/06 06:59:51;;;;;;;13.95;9.13;;;;;;;10.81;70.79;100024.22;4952328;28;102603;-49
2022/01/06 07:02:17;;;;;;;12.00;9.57;;;;;;;10.81;71.02;100026.94;4962846;28;103897;-48
2022/01/06 07:04:43;;;;;;;13.38;9.75;;;;;;;10.81;70.42;100037.81;4932830;28;102197;-46
2022/01/06 07:07:10;;;;;;;10.38;8.90;;;;;;;10.82;70.61;100047.63;4935000;28;102656;-50
2022/01/06 07:09:36;;;;;;;13.02;9.18;;;;;;;10.81;70.80;100056.06;4934089;28;102302;-49
2022/01/06 07:12:05;;;;;;;13.15;10.10;;;;;;;10.82;70.61;100047.63;4930647;28;103910;-49
2022/01/06 07:14:32;;;;;;;12.10;9.60;;;;;;;10.82;70.59;100044.91;4934594;28;102150;-48
2022/01/06 07:16:59;;;;;;;11.75;9.52;;;;;;;10.82;70.72;100036.75;4933582;28;104968;-49
2022/01/06 07:19:25;;;;;;;11.30;8.63;;;;;;;10.82;70.64;100047.63;4950457;28;102656;-48
2022/01/06 07:21:51;;;;;;;12.57;9.38;;;;;;;10.82;71.06;100047.63;4940167;28;103914;-48
2022/01/06 07:24:18;;;;;;;11.70;8.80;;;;;;;10.83;70.58;100046.50;4935753;28;105797;-47
2022/01/06 07:26:45;;;;;;;10.95;8.95;;;;;;;10.83;71.01;100049.25;4930871;28;102466;-49
2022/01/06 07:29:12;;;;;;;587.22;46.13;;;;;;;10.84;70.99;100050.03;4940684;28;103554;-49
2022/01/06 07:31:39;;;;;;;55.72;12.73;;;;;;;10.83;70.91;100054.69;4942081;28;103906;-46
2022/01/06 07:34:05;;;;;;;91.28;16.23;;;;;;;10.85;70.82;100059.00;4931798;28;102528;-49
2022/01/06 07:36:32;;;;;;;23.55;9.98;;;;;;;10.85;70.89;100056.28;4947174;28;104231;-47
2022/01/06 07:38:58;;;;;;;13.20;9.52;;;;;;;10.93;71.14;100063.84;4956229;28;102198;-48
2022/01/06 07:41:25;;;;;;;11.07;9.02;;;;;;;10.94;70.98;100070.91;4954926;28;103994;-48
2022/01/06 07:43:53;;;;;;;10.33;9.17;;;;;;;10.91;70.91;100063.31;4975224;28;102348;-47
2022/01/06 07:46:21;;;;;;;11.85;9.38;;;;;;;10.89;70.98;100066.34;4937738;28;102204;-47
2022/01/06 07:48:57;;;;;;;12.07;9.95;;;;;;;10.90;71.04;100061.69;4942122;28;102597;-48
2022/01/06 07:51:23;;;;;;;11.63;9.38;;;;;;;10.90;70.72;100058.97;4943973;28;104815;-47
2022/01/06 07:53:50;;;;;;;11.57;9.70;;;;;;;10.89;71.19;100051.88;4934856;28;102601;-50
2022/01/06 07:56:17;;;;;;;12.52;9.82;;;;;;;10.89;70.78;100063.63;4940752;28;102175;-47
2022/01/06 07:58:44;;;;;;;11.98;9.50;;;;;;;10.87;71.09;100054.09;4951572;28;102561;-48
2022/01/06 08:01:11;;;;;;;12.38;8.93;;;;;;;10.89;70.92;100068.22;4934697;28;104869;-49
2022/01/06 08:03:39;;;;;;;13.27;8.93;;;;;;;10.88;70.41;100064.69;4934048;28;103249;-49
2022/01/06 08:06:06;;;;;;;12.15;9.65;;;;;;;10.88;71.20;100067.41;4938774;28;102485;-50
2022/01/06 08:08:32;;;;;;;12.02;9.93;;;;;;;10.89;70.86;100065.50;4941503;28;102432;-48
2022/01/06 08:10:59;;;;;;;13.82;9.75;;;;;;;10.89;70.88;100074.50;4967752;28;105115;-49
2022/01/06 08:13:25;;;;;;;11.23;9.68;;;;;;;10.90;70.89;100073.41;4936616;28;102174;-50
2022/01/06 08:15:51;;;;;;;12.23;9.93;;;;;;;10.90;70.49;100067.16;4945529;28;102293;-49
2022/01/06 08:18:18;;;;;;;13.57;9.95;;;;;;;10.89;71.02;100062.78;4925353;28;102248;-50
2022/01/06 08:20:46;;;;;;;13.02;9.32;;;;;;;10.89;70.87;100063.63;4936696;28;104255;-49
2022/01/06 08:23:12;;;;;;;12.77;8.95;;;;;;;10.91;70.92;100060.59;4946296;28;103371;-47
2022/01/06 08:25:39;;;;;;;12.82;9.38;;;;;;;10.90;70.64;100064.41;4938338;28;102009;-50
2022/01/06 08:28:07;;;;;;;12.30;9.00;;;;;;;10.91;71.10;100071.47;4947720;28;102511;-47
2022/01/06 08:30:34;;;;;;;11.48;8.73;;;;;;;10.91;70.82;100075.00;4954549;28;104200;-47
2022/01/06 08:33:00;;;;;;;11.63;9.10;;;;;;;10.91;71.07;100071.47;4945344;28;102011;-47
2022/01/06 08:35:27;;;;;;;10.40;8.88;;;;;;;10.91;70.71;100068.75;4937103;28;102292;-47
2022/01/06 08:37:56;;;;;;;11.52;9.30;;;;;;;10.92;70.68;100067.66;4949548;28;102225;-50
2022/01/06 08:40:22;;;;;;;11.27;9.23;;;;;;;10.92;70.61;100073.09;4946072;28;102718;-48
2022/01/06 08:42:49;;;;;;;10.82;8.90;;;;;;;10.93;70.78;100072.03;4933403;28;104826;-48
2022/01/06 08:45:16;;;;;;;13.05;9.40;;;;;;;10.93;70.54;100072.03;4936920;28;102457;-50
2022/01/06 08:47:44;;;;;;;10.25;8.80;;;;;;;10.93;71.05;100080.19;4930839;28;102356;-48
2022/01/06 08:50:11;;;;;;;10.85;9.52;;;;;;;10.93;70.96;100080.19;4935765;28;103896;-47
2022/01/06 08:52:39;;;;;;;12.05;9.38;;;;;;;10.93;70.57;100086.44;4947204;28;102277;-47
2022/01/06 08:55:08;;;;;;;13.32;9.40;;;;;;;10.94;70.62;100087.25;4940042;28;102401;-46
2022/01/06 08:57:34;;;;;;;11.25;9.38;;;;;;;10.93;70.60;100091.06;4940868;28;102575;-50
2022/01/06 09:00:04;;;;;;;10.88;9.10;;;;;;;10.94;70.92;100093.50;4938367;28;103881;-50
2022/01/06 09:02:30;;;;;;;;;;;;;;;10.95;70.72;100083.41;4945906;28;102256;-48
2022/01/06 09:04:59;;;;;;;11.95;9.23;;;;;;;10.95;70.69;100083.41;4956775;28;102289;-48
2022/01/06 09:07:25;;;;;;;11.45;9.43;;;;;;;10.95;71.11;100088.84;4945672;28;102320;-50
2022/01/06 09:09:52;;;;;;;11.10;9.30;;;;;;;10.95;70.55;100083.41;4941497;28;103981;-50
2022/01/06 09:12:19;;;;;;;11.77;8.95;;;;;;;10.96;70.80;100085.88;4938137;28;102336;-49
2022/01/06 09:14:47;;;;;;;10.10;8.85;;;;;;;10.98;70.90;100085.56;4936446;28;101999;-48
2022/01/06 09:17:14;;;;;;;11.00;8.52;;;;;;;10.98;70.66;100085.56;4937069;28;102287;-50
2022/01/06 09:19:51;;;;;;;10.10;8.32;;;;;;;10.98;70.67;100085.56;4939763;28;104124;-48
2022/01/06 09:22:17;;;;;;;9.98;8.75;;;;;;;10.99;71.19;100082.53;4940581;28;102200;-48
2022/01/06 09:24:44;;;;;;;13.48;9.70;;;;;;;11.00;70.58;100080.66;4937198;28;101986;-47
2022/01/06 09:27:10;;;;;;;11.05;8.73;;;;;;;11.00;71.04;100076.00;4944596;28;102244;-48
2022/01/06 09:29:38;;;;;;;11.10;9.02;;;;;;;11.01;71.27;100076.81;4935664;28;103816;-49
2022/01/06 09:32:05;;;;;;;11.80;9.20;;;;;;;11.02;70.98;100071.06;4936901;28;102117;-50
2022/01/06 09:34:32;;;;;;;9.77;8.52;;;;;;;11.02;71.23;100068.34;4937335;28;102726;-48
2022/01/06 09:36:58;;;;;;;10.63;9.18;;;;;;;11.04;71.16;100068.06;4933109;28;104450;-49
2022/01/06 09:39:24;;;;;;;9.98;8.88;;;;;;;11.04;70.81;100070.78;4933834;28;103897;-48
2022/01/06 09:41:51;;;;;;;12.98;8.95;;;;;;;11.05;71.27;100061.53;4936130;28;102438;-48
2022/01/06 09:44:18;;;;;;;11.35;8.63;;;;;;;11.05;71.32;100062.31;4939211;28;102273;-49
2022/01/06 09:46:46;;;;;;;10.52;8.95;;;;;;;11.06;71.22;100053.03;4941436;28;102275;-47
2022/01/06 09:49:14;;;;;;;11.13;9.43;;;;;;;11.07;71.01;100064.75;4926462;28;107641;-49
2022/01/06 09:51:45;;;;;;;10.35;8.52;;;;;;;11.08;71.17;100080.00;4936272;28;102575;-49
2022/01/06 09:54:12;;;;;;;11.75;9.02;;;;;;;11.09;71.33;100078.91;4936890;28;102648;-49
2022/01/06 09:56:39;;;;;;;11.32;8.57;;;;;;;11.10;70.87;100069.63;4938332;28;102540;-47
2022/01/06 09:59:06;;;;;;;11.90;9.35;;;;;;;11.10;71.08;100069.63;4937868;28;103925;-48
2022/01/06 10:01:32;;;;;;;10.63;8.80;;;;;;;11.11;71.14;100079.44;4956216;28;102230;-48
2022/01/06 10:04:00;;;;;;;11.73;9.35;;;;;;;11.12;71.16;100072.06;4966816;28;102659;-49
2022/01/06 10:06:28;;;;;;;12.75;9.30;;;;;;;11.13;71.33;100074.50;4939268;28;102722;-48
2022/01/06 10:08:56;;;;;;;15.20;8.70;;;;;;;11.13;70.94;100057.34;4928925;28;103938;-49
2022/01/06 10:11:25;;;;;;;12.52;9.40;;;;;;;11.14;71.19;100065.22;4927351;28;102180;-47
2022/01/06 10:13:59;;;;;;;15.85;10.13;;;;;;;11.15;71.26;100055.16;4931362;28;102612;-49
2022/01/06 10:16:28;;;;;;;18.65;10.07;;;;;;;11.14;71.00;100054.31;4941520;28;102673;-48
2022/01/06 10:19:03;;;;;;;15.02;9.73;;;;;;;11.15;71.34;100053.22;4933883;28;103864;-49
2022/01/06 10:21:31;;;;;;;18.27;10.75;;;;;;;11.17;70.89;100059.19;4942559;28;104817;-49
2022/01/06 10:23:59;;;;;;;13.25;10.18;;;;;;;11.16;71.44;100041.22;4936705;28;102253;-48
2022/01/06 10:26:25;;;;;;;19.67;10.43;;;;;;;11.18;71.32;100051.81;4928006;28;103815;-46
2022/01/06 10:28:52;;;;;;;19.40;10.60;;;;;;;11.18;71.17;100039.03;4934405;28;103880;-49
2022/01/06 10:31:22;;;;;;;14.05;10.50;;;;;;;11.20;71.38;100047.72;4954047;28;102543;-49
2022/01/06 10:33:49;;;;;;;14.50;10.88;;;;;;;11.19;71.19;100046.09;4942490;28;102262;-48
2022/01/06 10:36:17;;;;;;;14.40;10.32;;;;;;;11.20;71.28;100045.00;4944835;28;102644;-48
2022/01/06 10:38:52;;;;;;;14.98;10.20;;;;;;;11.21;71.10;100043.06;4938514;28;104119;-48
2022/01/06 10:41:19;;;;;;;13.63;10.35;;;;;;;11.21;71.36;100043.06;4940040;28;102031;-48
2022/01/06 10:43:49;;;;;;;14.18;9.75;;;;;;;11.21;71.06;100048.50;4939564;28;102830;-49
2022/01/06 10:46:26;;;;;;;13.27;10.57;;;;;;;11.21;71.12;100053.97;4940140;28;102136;-48
2022/01/06 10:48:56;;;;;;;14.95;9.77;;;;;;;11.21;71.11;100051.25;4938673;28;104038;-50
2022/01/06 10:51:33;;;;;;;12.40;10.00;;;;;;;11.21;71.51;100057.50;4942194;28;102250;-48
2022/01/06 10:53:59;;;;;;;12.70;9.63;;;;;;;11.21;71.02;100049.31;4937743;28;102290;-49
2022/01/06 10:56:27;;;;;;;11.45;8.90;;;;;;;11.22;71.43;100061.06;4940279;28;103867;-46
2022/01/06 10:58:57;;;;;;;11.32;9.25;;;;;;;11.23;71.18;100057.22;4941656;28;103861;-48
2022/01/06 11:01:24;;;;;;;12.88;9.43;;;;;;;11.21;71.23;100053.97;4939540;28;102179;-50
2022/01/06 11:03:51;;;;;;;13.23;9.05;;;;;;;11.21;71.39;100049.31;4938667;28;102141;-50
2022/01/06 11:06:17;;;;;;;11.95;9.10;;;;;;;11.21;71.12;100043.06;4942787;28;103476;-49
2022/01/06 11:08:45;;;;;;;12.88;9.45;;;;;;;11.22;71.31;100050.97;4949913;28;104230;-48
2022/01/06 11:13:41;;;;;;;11.23;9.30;;;;;;;11.21;70.95;100052.03;4933786;28;102403;-48
2022/01/06 11:16:12;;;;;;;13.40;9.05;;;;;;;11.21;70.79;100052.03;4951967;28;105021;-47
2022/01/06 11:18:42;;;;;;;12.75;9.25;;;;;;;11.21;70.90;100053.97;4953043;28;107995;-49
2022/01/06 11:21:13;;;;;;;12.53;9.10;;;;;;;11.21;70.78;100054.78;4956500;28;103203;-47
2022/01/06 11:23:40;;;;;;;11.27;8.70;;;;;;;11.19;70.88;100057.00;4953668;28;102126;-48
2022/01/06 11:26:11;;;;;;;13.57;8.73;;;;;;;11.20;71.08;100046.91;4957998;28;102385;-49